WWD weather

Cape May County Airport
Wildwood, New Jersey, United States

Public forecast

Using degrees Fahrenheit for public forecast. Weather courtesy of forecast.io.

METAR (pilot weather report)

Retrieved 2019/09/21 06:56 UTC (51 minutes ago):

KWWD 210656Z AUTO 23008KT 10SM CLR 18/17 A3025 RMK AO2 SLP245 T01830167

TAF (pilot weather forecast)

Closest forecast is Millville Municipal Airport, 22.9 nm (42.4 km) NNW. Retrieved 2019/09/21 06:40 UTC (1 hour ago):

TAF KMIV 210538Z 2106/2206 VRB03KT P6SM SCT250 FM211500 24006KT P6SM SCT250 FM212200 VRB03KT P6SM SCT250